Time;durP1;ratioP1;P1;durP2;ratioP2;P2;SDS_P1;SDS_P2;PMS_P1;PMS_P2;Temp;Humidity;BMP_temperature;BMP_pressure;BME280_temperature;BME280_humidity;BME280_pressure;Samples;Min_cycle;Max_cycle;Signal;HPM_P1;HPM_P2
2023/01/06 00:00:32;;;;;;;1.80;1.30;;;;;;;;;;4983469;28;20057;-80
2023/01/06 00:02:59;;;;;;;2.55;1.13;;;;;;;;;;4944465;28;20059;-78
2023/01/06 00:05:28;;;;;;;2.17;1.20;;;;;;;;;;4958671;28;20061;-78
2023/01/06 00:07:54;;;;;;;2.42;1.50;;;;;;;;;;4958376;28;20404;-77
2023/01/06 00:10:21;;;;;;;1.70;1.33;;;;;;;;;;4957829;28;20054;-77
2023/01/06 00:12:48;;;;;;;2.60;1.50;;;;;;;;;;4954143;28;20389;-78
2023/01/06 00:15:16;;;;;;;4.30;1.60;;;;;;;;;;4922547;29;20052;-78
2023/01/06 00:17:42;;;;;;;1.30;1.17;;;;;;;;;;4938633;29;20055;-77
2023/01/06 00:20:10;;;;;;;2.00;1.70;;;;;;;;;;4922563;29;20650;-77
2023/01/06 00:22:40;;;;;;;1.50;1.25;;;;;;;;;;4907137;29;20423;-77
2023/01/06 00:25:10;;;;;;;2.38;1.55;;;;;;;;;;4954539;28;20059;-77
2023/01/06 00:27:38;;;;;;;2.53;1.50;;;;;;;;;;4942453;28;20063;-79
2023/01/06 00:30:05;;;;;;;2.55;1.50;;;;;;;;;;4958989;28;20070;-79
2023/01/06 00:32:32;;;;;;;2.55;1.40;;;;;;;;;;4927842;28;20395;-80
2023/01/06 00:34:59;;;;;;;3.50;1.67;;;;;;;;;;4960265;28;20058;-79
2023/01/06 00:37:26;;;;;;;3.97;1.40;;;;;;;;;;4943376;28;20515;-79
2023/01/06 00:39:52;;;;;;;2.15;1.55;;;;;;;;;;4954682;29;20059;-80
2023/01/06 00:42:21;;;;;;;3.60;1.48;;;;;;;;;;4946213;28;20059;-79
2023/01/06 00:44:48;;;;;;;1.88;1.00;;;;;;;;;;4907931;29;20488;-80
2023/01/06 00:47:15;;;;;;;2.03;1.45;;;;;;;;;;4922619;29;20223;-79
2023/01/06 00:49:41;;;;;;;1.98;1.25;;;;;;;;;;4908153;29;20058;-79
2023/01/06 00:52:08;;;;;;;2.25;1.50;;;;;;;;;;4907588;28;20652;-79
2023/01/06 00:54:38;;;;;;;3.58;2.30;;;;;;;;;;4945414;29;20044;-79
2023/01/06 00:57:05;;;;;;;4.03;2.13;;;;;;;;;;4923337;29;20051;-78
2023/01/06 00:59:32;;;;;;;2.47;1.48;;;;;;;;;;4922663;29;20501;-78
2023/01/06 01:01:59;;;;;;;3.20;1.77;;;;;;;;;;4907026;29;20062;-78
2023/01/06 01:04:27;;;;;;;2.97;1.65;;;;;;;;;;4970024;28;20496;-78
2023/01/06 01:06:54;;;;;;;2.33;1.70;;;;;;;;;;4953209;29;20098;-77
2023/01/06 01:09:26;;;;;;;3.00;1.92;;;;;;;;;;4968950;28;20063;-78
2023/01/06 01:14:41;;;;;;;4.65;2.10;;;;;;;;;;4959739;28;20050;-78
2023/01/06 01:17:09;;;;;;;2.63;2.17;;;;;;;;;;4973954;28;20081;-78
2023/01/06 01:19:37;;;;;;;2.85;2.42;;;;;;;;;;4959014;28;20054;-78
2023/01/06 01:22:03;;;;;;;4.20;2.58;;;;;;;;;;4935887;28;20051;-78
2023/01/06 01:24:30;;;;;;;4.50;2.13;;;;;;;;;;4955836;29;20059;-78
2023/01/06 01:26:57;;;;;;;5.10;2.42;;;;;;;;;;4923643;29;20055;-78
2023/01/06 01:29:25;;;;;;;5.13;2.50;;;;;;;;;;4908709;29;20110;-78
2023/01/06 01:31:52;;;;;;;4.43;2.45;;;;;;;;;;4913029;29;20055;-78
2023/01/06 01:34:19;;;;;;;4.50;2.63;;;;;;;;;;4951389;29;20536;-78
2023/01/06 01:36:47;;;;;;;4.10;2.50;;;;;;;;;;4932421;28;20058;-79
2023/01/06 01:39:15;;;;;;;4.18;2.92;;;;;;;;;;4956132;28;20499;-78
2023/01/06 01:41:42;;;;;;;5.20;2.63;;;;;;;;;;4956155;28;20129;-78
2023/01/06 01:44:46;;;;;;;5.43;3.22;;;;;;;;;;4940213;28;20046;-79
2023/01/06 01:47:15;;;;;;;4.80;2.80;;;;;;;;;;4956293;28;20069;-79
2023/01/06 01:49:43;;;;;;;4.93;3.33;;;;;;;;;;4940017;28;20487;-78
2023/01/06 01:52:10;;;;;;;5.93;3.05;;;;;;;;;;4926190;28;20081;-78
2023/01/06 01:54:36;;;;;;;6.20;3.38;;;;;;;;;;4941933;28;20055;-79
2023/01/06 01:57:08;;;;;;;6.68;3.30;;;;;;;;;;4941536;28;20054;-78
2023/01/06 01:59:36;;;;;;;4.07;3.20;;;;;;;;;;4942661;28;20065;-78
2023/01/06 02:02:03;;;;;;;5.40;3.08;;;;;;;;;;4941204;28;20061;-80
2023/01/06 02:04:31;;;;;;;4.43;2.83;;;;;;;;;;4940521;29;20106;-78
2023/01/06 02:06:58;;;;;;;4.20;3.00;;;;;;;;;;4921355;29;20051;-78
2023/01/06 02:09:43;;;;;;;5.90;2.47;;;;;;;;;;4936919;29;20471;-78
2023/01/06 02:12:10;;;;;;;5.35;2.83;;;;;;;;;;4968899;28;20062;-78
2023/01/06 02:14:36;;;;;;;4.05;2.78;;;;;;;;;;4920781;29;20062;-78
2023/01/06 02:17:12;;;;;;;6.13;3.25;;;;;;;;;;4936643;28;20059;-78
2023/01/06 02:20:17;;;;;;;5.45;3.13;;;;;;;;;;4952400;29;20090;-78
2023/01/06 02:22:53;;;;;;;7.47;2.90;;;;;;;;;;4896989;29;20056;-77
2023/01/06 02:25:59;;;;;;;5.32;2.80;;;;;;;;;;4931287;29;20132;-78
2023/01/06 02:28:56;;;;;;;6.57;2.92;;;;;;;;;;4951774;29;20500;-77
2023/01/06 02:31:35;;;;;;;6.40;3.58;;;;;;;;;;4942754;28;20061;-77
2023/01/06 02:34:23;;;;;;;3.83;2.88;;;;;;;;;;4971163;28;20051;-77
2023/01/06 02:37:13;;;;;;;4.25;2.90;;;;;;;;;;4971010;28;20055;-77
2023/01/06 02:40:00;;;;;;;5.35;2.80;;;;;;;;;;4955624;28;20058;-78
2023/01/06 02:42:50;;;;;;;6.80;3.03;;;;;;;;;;4940719;29;20055;-78
2023/01/06 02:45:40;;;;;;;3.97;2.63;;;;;;;;;;4952271;29;20062;-78
2023/01/06 02:48:14;;;;;;;4.70;3.10;;;;;;;;;;4921829;29;20082;-78
2023/01/06 02:50:43;;;;;;;4.30;3.00;;;;;;;;;;4936779;28;20059;-78
2023/01/06 02:53:13;;;;;;;7.50;3.63;;;;;;;;;;4939487;28;20057;-78
2023/01/06 02:55:44;;;;;;;3.58;2.50;;;;;;;;;;4971294;28;20102;-78
2023/01/06 02:58:27;;;;;;;6.93;2.85;;;;;;;;;;4940498;28;20065;-79
2023/01/06 03:01:36;;;;;;;3.38;2.60;;;;;;;;;;4954402;28;20055;-77
2023/01/06 03:04:06;;;;;;;4.95;2.65;;;;;;;;;;4940641;28;20092;-79
2023/01/06 03:06:33;;;;;;;3.80;2.58;;;;;;;;;;4927789;28;20050;-81
2023/01/06 03:09:00;;;;;;;3.15;2.63;;;;;;;;;;4944069;28;20051;-81
2023/01/06 03:11:28;;;;;;;4.68;2.92;;;;;;;;;;4935356;28;20074;-79
2023/01/06 03:13:54;;;;;;;3.72;2.95;;;;;;;;;;4956795;28;20114;-79
2023/01/06 03:16:21;;;;;;;5.00;2.67;;;;;;;;;;4972853;28;20055;-78
2023/01/06 03:18:49;;;;;;;3.80;2.83;;;;;;;;;;4938570;28;20054;-78
2023/01/06 03:21:19;;;;;;;4.38;2.83;;;;;;;;;;4937809;28;20057;-78
2023/01/06 03:23:46;;;;;;;4.38;2.88;;;;;;;;;;4922794;28;20066;-77
2023/01/06 03:26:13;;;;;;;4.13;2.50;;;;;;;;;;4976430;28;20078;-78
2023/01/06 03:28:40;;;;;;;3.00;2.05;;;;;;;;;;4954414;28;20654;-78
2023/01/06 03:31:22;;;;;;;3.92;2.35;;;;;;;;;;4920440;28;20054;-79
2023/01/06 03:33:53;;;;;;;4.22;2.80;;;;;;;;;;4935113;29;20163;-79
2023/01/06 03:36:38;;;;;;;4.32;2.53;;;;;;;;;;4919795;29;20054;-79
2023/01/06 03:39:19;;;;;;;4.05;2.72;;;;;;;;;;4951346;29;20063;-78
2023/01/06 03:44:40;;;;;;;4.97;2.78;;;;;;;;;;4957379;28;20062;-78
2023/01/06 03:47:23;;;;;;;3.25;2.90;;;;;;;;;;4970707;28;20053;-77
2023/01/06 03:50:22;;;;;;;4.13;2.42;;;;;;;;;;4954953;28;20054;-78
2023/01/06 03:53:02;;;;;;;4.95;3.03;;;;;;;;;;4938784;28;20420;-78
2023/01/06 03:55:30;;;;;;;4.07;2.78;;;;;;;;;;4934414;29;20051;-78
2023/01/06 03:57:57;;;;;;;5.13;3.00;;;;;;;;;;4951148;29;20070;-78
2023/01/06 04:00:27;;;;;;;3.47;2.50;;;;;;;;;;4936074;29;20500;-78
2023/01/06 04:02:54;;;;;;;3.70;2.60;;;;;;;;;;4956413;29;20055;-77
2023/01/06 04:05:22;;;;;;;3.97;2.65;;;;;;;;;;4938552;29;20122;-77
2023/01/06 04:07:49;;;;;;;3.28;2.40;;;;;;;;;;4934185;29;20051;-77
2023/01/06 04:10:17;;;;;;;5.13;2.60;;;;;;;;;;4950246;29;20409;-77
2023/01/06 04:12:44;;;;;;;4.18;2.70;;;;;;;;;;4964998;28;20059;-77
2023/01/06 04:15:13;;;;;;;4.10;3.10;;;;;;;;;;4937546;28;20059;-77
2023/01/06 04:17:40;;;;;;;4.50;2.88;;;;;;;;;;4937654;28;20050;-78
2023/01/06 04:20:10;;;;;;;3.85;2.90;;;;;;;;;;4938285;28;20075;-78
2023/01/06 04:22:36;;;;;;;5.68;3.38;;;;;;;;;;4955050;28;20061;-78
2023/01/06 04:25:04;;;;;;;5.13;2.70;;;;;;;;;;4974321;28;20084;-78
2023/01/06 04:27:31;;;;;;;6.25;3.13;;;;;;;;;;4943131;28;20063;-79
2023/01/06 04:29:58;;;;;;;3.58;2.63;;;;;;;;;;4949413;28;20090;-78
2023/01/06 04:32:25;;;;;;;5.72;2.92;;;;;;;;;;4942432;28;20047;-78
2023/01/06 04:34:52;;;;;;;4.65;2.58;;;;;;;;;;4952051;28;20054;-78
2023/01/06 04:37:18;;;;;;;7.22;3.20;;;;;;;;;;4960843;28;20055;-78
2023/01/06 04:39:47;;;;;;;3.97;2.85;;;;;;;;;;4977807;28;20063;-78
2023/01/06 04:42:13;;;;;;;3.47;2.90;;;;;;;;;;4984649;28;20055;-79
2023/01/06 04:44:41;;;;;;;4.30;3.13;;;;;;;;;;4965282;28;20059;-79
2023/01/06 04:47:09;;;;;;;4.40;2.95;;;;;;;;;;4941853;28;20098;-78
2023/01/06 04:49:36;;;;;;;6.43;3.80;;;;;;;;;;4941789;28;20113;-78
2023/01/06 04:52:04;;;;;;;5.30;3.50;;;;;;;;;;4954125;28;20051;-78
2023/01/06 04:54:30;;;;;;;5.47;3.22;;;;;;;;;;4954837;29;20071;-78
2023/01/06 04:56:57;;;;;;;4.43;3.38;;;;;;;;;;4954214;29;20054;-78
2023/01/06 04:59:24;;;;;;;5.88;4.00;;;;;;;;;;4939946;29;20213;-78
2023/01/06 05:01:51;;;;;;;7.55;3.90;;;;;;;;;;4948039;28;20051;-79
2023/01/06 05:04:18;;;;;;;4.72;3.42;;;;;;;;;;4962178;28;20059;-77
2023/01/06 05:06:44;;;;;;;4.90;3.63;;;;;;;;;;4942848;28;20055;-79
2023/01/06 05:09:11;;;;;;;5.35;3.75;;;;;;;;;;4959658;28;20058;-80
2023/01/06 05:11:38;;;;;;;4.32;3.38;;;;;;;;;;4962043;28;20054;-78
2023/01/06 05:14:05;;;;;;;5.63;3.78;;;;;;;;;;4977112;28;20062;-79
2023/01/06 05:16:33;;;;;;;4.63;3.53;;;;;;;;;;4942662;28;20051;-78
2023/01/06 05:19:00;;;;;;;8.65;3.80;;;;;;;;;;4925701;28;20411;-79
2023/01/06 05:21:28;;;;;;;5.57;3.38;;;;;;;;;;4926571;28;20062;-77
2023/01/06 05:23:58;;;;;;;4.60;2.80;;;;;;;;;;4957306;28;20054;-77
2023/01/06 05:26:27;;;;;;;3.17;2.88;;;;;;;;;;4931371;29;20052;-78
2023/01/06 05:28:54;;;;;;;6.22;3.30;;;;;;;;;;4921657;29;20146;-78
2023/01/06 05:31:22;;;;;;;5.82;2.90;;;;;;;;;;4937446;29;20479;-78
2023/01/06 05:33:49;;;;;;;4.85;3.17;;;;;;;;;;4927490;29;20055;-78
2023/01/06 05:36:17;;;;;;;3.50;2.95;;;;;;;;;;4937731;29;20055;-79
2023/01/06 05:38:49;;;;;;;4.20;3.00;;;;;;;;;;4969036;28;20066;-79
2023/01/06 05:41:16;;;;;;;3.60;2.95;;;;;;;;;;4971163;28;20522;-79
2023/01/06 05:43:42;;;;;;;3.58;2.50;;;;;;;;;;4971275;28;20057;-79
2023/01/06 05:46:10;;;;;;;3.38;2.60;;;;;;;;;;4958869;29;20047;-79
2023/01/06 05:48:38;;;;;;;3.38;2.10;;;;;;;;;;4962856;28;20054;-79
2023/01/06 05:51:12;;;;;;;3.67;2.80;;;;;;;;;;4960919;28;20570;-79
2023/01/06 05:53:40;;;;;;;2.90;2.42;;;;;;;;;;4974644;28;20054;-79
2023/01/06 05:56:09;;;;;;;3.78;2.60;;;;;;;;;;4956642;28;20046;-78
2023/01/06 05:58:36;;;;;;;5.30;3.30;;;;;;;;;;4957132;28;20058;-80
2023/01/06 06:01:03;;;;;;;7.72;5.13;;;;;;;;;;4974323;28;20439;-79
2023/01/06 06:03:30;;;;;;;8.65;5.95;;;;;;;;;;4956572;28;20046;-78
2023/01/06 06:06:04;;;;;;;5.75;4.95;;;;;;;;;;4958463;28;20509;-78
2023/01/06 06:08:32;;;;;;;5.72;5.20;;;;;;;;;;4988699;28;20056;-78
2023/01/06 06:11:06;;;;;;;6.28;3.90;;;;;;;;;;4942844;28;20059;-78
2023/01/06 06:13:32;;;;;;;6.32;3.58;;;;;;;;;;4979947;28;20066;-79
2023/01/06 06:16:10;;;;;;;6.95;3.55;;;;;;;;;;4942026;28;20066;-77
2023/01/06 06:18:43;;;;;;;3.55;3.05;;;;;;;;;;4956559;28;20573;-78
2023/01/06 06:21:12;;;;;;;5.47;3.00;;;;;;;;;;4941558;28;20054;-79
2023/01/06 06:23:39;;;;;;;5.35;3.10;;;;;;;;;;4958637;28;20065;-79
2023/01/06 06:26:06;;;;;;;4.13;2.67;;;;;;;;;;4961892;28;20066;-78
2023/01/06 06:28:33;;;;;;;3.75;2.80;;;;;;;;;;4944173;28;20051;-78
2023/01/06 06:31:07;;;;;;;2.95;2.72;;;;;;;;;;4939251;28;20050;-77
2023/01/06 06:33:34;;;;;;;5.70;3.20;;;;;;;;;;4956637;28;20109;-78
2023/01/06 06:36:01;;;;;;;6.22;3.10;;;;;;;;;;4972756;28;20065;-78
2023/01/06 06:38:28;;;;;;;4.93;3.33;;;;;;;;;;4936885;29;20058;-78
2023/01/06 06:40:54;;;;;;;3.67;3.13;;;;;;;;;;4921558;29;20066;-77
2023/01/06 06:43:21;;;;;;;6.45;3.00;;;;;;;;;;4937078;28;20055;-78
2023/01/06 06:45:48;;;;;;;6.32;3.08;;;;;;;;;;4936182;29;20229;-77
2023/01/06 06:48:15;;;;;;;4.20;3.20;;;;;;;;;;4949558;28;20158;-78
2023/01/06 06:50:42;;;;;;;6.05;2.80;;;;;;;;;;4943410;28;20153;-77
2023/01/06 06:53:09;;;;;;;4.38;2.55;;;;;;;;;;4940497;28;20058;-77
2023/01/06 06:55:36;;;;;;;3.15;2.05;;;;;;;;;;4955169;28;20051;-77
2023/01/06 06:58:02;;;;;;;3.67;2.20;;;;;;;;;;4954544;28;20109;-78
2023/01/06 07:00:29;;;;;;;3.78;2.15;;;;;;;;;;4939426;28;20058;-77
2023/01/06 07:02:56;;;;;;;2.45;2.15;;;;;;;;;;4939468;28;20121;-78
2023/01/06 07:05:24;;;;;;;2.97;2.50;;;;;;;;;;4940683;28;20062;-78
2023/01/06 07:07:51;;;;;;;3.10;2.78;;;;;;;;;;4939098;28;20411;-77
2023/01/06 07:10:20;;;;;;;2.55;2.35;;;;;;;;;;4939412;28;20067;-78
2023/01/06 07:12:47;;;;;;;3.17;2.20;;;;;;;;;;4954721;28;20082;-78
2023/01/06 07:15:14;;;;;;;3.47;2.72;;;;;;;;;;4954644;28;20050;-77
2023/01/06 07:17:41;;;;;;;3.67;2.38;;;;;;;;;;4951764;29;20043;-79
2023/01/06 07:20:08;;;;;;;4.15;2.80;;;;;;;;;;4944293;29;20051;-80
2023/01/06 07:22:38;;;;;;;5.90;2.80;;;;;;;;;;4922286;29;20420;-77
2023/01/06 07:25:06;;;;;;;3.67;2.95;;;;;;;;;;4952932;29;20125;-82
2023/01/06 07:27:33;;;;;;;4.50;3.00;;;;;;;;;;4926062;29;20047;-80
2023/01/06 07:30:01;;;;;;;4.15;3.00;;;;;;;;;;4925447;29;20587;-79
2023/01/06 07:32:27;;;;;;;4.90;2.83;;;;;;;;;;4925439;29;20051;-80
2023/01/06 07:34:54;;;;;;;4.95;3.58;;;;;;;;;;4957807;29;20054;-80
2023/01/06 07:37:21;;;;;;;3.78;3.17;;;;;;;;;;4962410;28;20059;-80
2023/01/06 07:39:48;;;;;;;4.30;3.20;;;;;;;;;;4943627;29;20109;-80
2023/01/06 07:42:14;;;;;;;6.63;3.28;;;;;;;;;;4926473;28;20074;-80
2023/01/06 07:44:41;;;;;;;4.40;2.95;;;;;;;;;;4925464;29;20435;-80
2023/01/06 07:47:09;;;;;;;6.45;4.90;;;;;;;;;;4912750;28;20054;-80
2023/01/06 07:49:36;;;;;;;6.35;5.25;;;;;;;;;;4976352;28;20350;-79
2023/01/06 07:52:02;;;;;;;6.53;4.20;;;;;;;;;;4990417;28;20114;-79
2023/01/06 07:54:29;;;;;;;6.95;4.10;;;;;;;;;;4957392;28;20054;-79
2023/01/06 07:56:56;;;;;;;5.80;3.72;;;;;;;;;;4960392;28;20065;-80
2023/01/06 07:59:23;;;;;;;4.65;3.92;;;;;;;;;;4929035;29;20054;-81
2023/01/06 08:01:49;;;;;;;4.47;3.88;;;;;;;;;;4929377;29;20059;-81
2023/01/06 08:04:16;;;;;;;3.50;3.20;;;;;;;;;;4929026;29;20066;-81
2023/01/06 08:06:43;;;;;;;7.32;3.80;;;;;;;;;;4913588;29;20051;-81
2023/01/06 08:09:10;;;;;;;4.65;3.38;;;;;;;;;;4963726;28;20507;-81
2023/01/06 08:11:36;;;;;;;5.18;2.90;;;;;;;;;;4964131;28;20063;-81
2023/01/06 08:14:03;;;;;;;2.78;1.80;;;;;;;;;;4979428;28;20499;-81
2023/01/06 08:16:30;;;;;;;4.00;2.38;;;;;;;;;;4947642;28;20058;-82
2023/01/06 08:18:56;;;;;;;4.57;1.92;;;;;;;;;;4963509;28;20070;-82
2023/01/06 08:21:23;;;;;;;3.22;1.85;;;;;;;;;;4960179;29;20070;-82
2023/01/06 08:23:50;;;;;;;2.00;1.42;;;;;;;;;;4928779;29;20401;-82
2023/01/06 08:26:16;;;;;;;4.07;1.52;;;;;;;;;;4959355;29;20104;-82
2023/01/06 08:28:44;;;;;;;2.90;1.63;;;;;;;;;;4940833;28;20443;-82
2023/01/06 08:31:16;;;;;;;2.17;1.50;;;;;;;;;;4945204;28;20062;-80
2023/01/06 08:33:43;;;;;;;1.85;1.30;;;;;;;;;;4960386;28;20054;-79
2023/01/06 08:36:15;;;;;;;3.10;1.50;;;;;;;;;;4945176;28;20058;-76
2023/01/06 08:38:42;;;;;;;4.38;2.22;;;;;;;;;;4944303;28;20055;-80
2023/01/06 08:41:09;;;;;;;4.57;2.30;;;;;;;;;;4974669;28;20066;-76
2023/01/06 08:43:37;;;;;;;3.00;1.92;;;;;;;;;;4957832;28;20061;-77
2023/01/06 08:46:06;;;;;;;2.13;1.10;;;;;;;;;;4973620;28;20058;-74
2023/01/06 08:48:34;;;;;;;2.08;0.70;;;;;;;;;;4944079;29;20087;-76
2023/01/06 08:51:05;;;;;;;2.95;0.95;;;;;;;;;;4923106;29;20059;-77
2023/01/06 08:53:32;;;;;;;1.42;1.00;;;;;;;;;;4928978;29;20456;-78
2023/01/06 08:55:59;;;;;;;1.02;0.88;;;;;;;;;;4924054;29;20055;-79
2023/01/06 08:58:26;;;;;;;1.70;0.60;;;;;;;;;;4952727;28;20158;-78
2023/01/06 09:00:52;;;;;;;1.52;1.00;;;;;;;;;;4927679;28;20063;-78
2023/01/06 09:03:19;;;;;;;1.42;1.20;;;;;;;;;;4942315;28;20051;-78
2023/01/06 09:05:56;;;;;;;2.53;1.25;;;;;;;;;;4942146;28;20134;-78
2023/01/06 09:08:23;;;;;;;2.25;1.13;;;;;;;;;;4929540;29;20519;-78
2023/01/06 09:10:50;;;;;;;2.45;0.80;;;;;;;;;;4954174;28;20385;-78
2023/01/06 09:13:17;;;;;;;2.72;0.80;;;;;;;;;;4924002;29;20425;-79
2023/01/06 09:15:47;;;;;;;1.30;0.70;;;;;;;;;;4940966;29;20063;-78
2023/01/06 09:18:14;;;;;;;1.40;0.90;;;;;;;;;;4930968;28;20053;-79
2023/01/06 09:20:41;;;;;;;11.38;2.78;;;;;;;;;;4995671;28;20054;-79
2023/01/06 09:23:08;;;;;;;10.82;4.38;;;;;;;;;;4976799;28;20065;-79
2023/01/06 09:25:34;;;;;;;8.93;4.13;;;;;;;;;;4961025;28;20511;-78
2023/01/06 09:28:01;;;;;;;4.15;2.80;;;;;;;;;;4961298;28;20081;-79
2023/01/06 09:30:28;;;;;;;6.68;3.90;;;;;;;;;;4961432;28;20117;-78
2023/01/06 09:32:55;;;;;;;1.52;1.17;;;;;;;;;;4962416;28;20058;-78
2023/01/06 09:35:21;;;;;;;1.60;1.20;;;;;;;;;;4945779;28;20063;-81
2023/01/06 09:37:48;;;;;;;1.70;1.15;;;;;;;;;;4943076;28;20047;-83
2023/01/06 09:40:21;;;;;;;2.30;1.08;;;;;;;;;;4960704;28;20065;-83
2023/01/06 09:43:00;;;;;;;0.85;0.63;;;;;;;;;;4977203;28;20059;-83
2023/01/06 09:45:35;;;;;;;0.73;0.70;;;;;;;;;;4962308;28;20121;-81
2023/01/06 09:48:03;;;;;;;2.17;0.93;;;;;;;;;;4983594;28;20510;-79
2023/01/06 09:50:40;;;;;;;3.85;1.20;;;;;;;;;;4968003;28;20077;-81
2023/01/06 09:53:21;;;;;;;1.95;0.75;;;;;;;;;;4957039;28;20093;-82
2023/01/06 09:55:51;;;;;;;1.08;0.90;;;;;;;;;;4932015;28;20058;-82
2023/01/06 09:58:21;;;;;;;1.88;1.00;;;;;;;;;;4972412;28;20054;-82
2023/01/06 10:00:51;;;;;;;3.90;1.88;;;;;;;;;;4956015;28;20137;-81
2023/01/06 10:03:20;;;;;;;2.70;1.38;;;;;;;;;;4941492;28;20113;-82
2023/01/06 10:05:57;;;;;;;3.08;1.40;;;;;;;;;;4964985;28;20094;-82
2023/01/06 10:08:36;;;;;;;3.65;1.27;;;;;;;;;;4980911;28;20053;-82
2023/01/06 10:11:29;;;;;;;2.65;1.38;;;;;;;;;;4961766;28;20054;-82
2023/01/06 10:13:59;;;;;;;3.97;2.08;;;;;;;;;;4945905;28;20095;-82
2023/01/06 10:16:40;;;;;;;1.33;1.10;;;;;;;;;;4957907;28;20073;-82
2023/01/06 10:19:59;;;;;;;3.45;1.50;;;;;;;;;;4940115;28;20562;-82
2023/01/06 10:22:47;;;;;;;1.30;0.65;;;;;;;;;;4885932;29;20071;-81
2023/01/06 10:25:18;;;;;;;1.05;0.82;;;;;;;;;;4908419;29;20053;-82
2023/01/06 10:27:50;;;;;;;1.52;0.90;;;;;;;;;;4968095;28;20562;-82
2023/01/06 10:30:26;;;;;;;1.30;0.73;;;;;;;;;;4966032;28;20055;-78
2023/01/06 10:32:56;;;;;;;1.48;0.60;;;;;;;;;;4949856;28;20057;-81
2023/01/06 10:35:24;;;;;;;2.65;1.00;;;;;;;;;;4932811;28;20062;-80
2023/01/06 10:37:52;;;;;;;2.47;1.10;;;;;;;;;;4926768;28;20122;-79
2023/01/06 10:40:28;;;;;;;2.13;1.00;;;;;;;;;;4943175;28;20133;-75
2023/01/06 10:43:11;;;;;;;1.35;0.60;;;;;;;;;;4965634;28;20518;-79
2023/01/06 10:45:45;;;;;;;;;;;;;;;;;;4964178;28;20129;-79
2023/01/06 10:48:17;;;;;;;0.82;0.50;;;;;;;;;;4943613;28;19988;-78
2023/01/06 10:50:44;;;;;;;3.50;0.80;;;;;;;;;;4948958;28;20054;-79
2023/01/06 10:53:12;;;;;;;2.28;0.98;;;;;;;;;;4934499;28;20435;-78
2023/01/06 10:55:58;;;;;;;1.20;0.57;;;;;;;;;;4955396;28;20430;-78
2023/01/06 10:58:46;;;;;;;0.77;0.63;;;;;;;;;;4963209;28;20046;-78
2023/01/06 11:01:27;;;;;;;1.63;0.60;;;;;;;;;;4961096;28;20054;-79
2023/01/06 11:04:06;;;;;;;1.42;0.40;;;;;;;;;;4935844;28;20436;-78
2023/01/06 11:06:34;;;;;;;0.60;0.40;;;;;;;;;;4934947;28;20114;-78
2023/01/06 11:09:20;;;;;;;0.90;0.52;;;;;;;;;;4934944;28;20115;-78
2023/01/06 11:11:47;;;;;;;0.32;0.32;;;;;;;;;;4923427;28;20142;-78
2023/01/06 11:14:19;;;;;;;0.30;0.30;;;;;;;;;;4951341;28;20076;-79
2023/01/06 11:16:58;;;;;;;0.90;0.55;;;;;;;;;;4956620;28;20519;-78
2023/01/06 11:19:37;;;;;;;2.38;0.77;;;;;;;;;;4964789;28;20446;-78
2023/01/06 11:22:09;;;;;;;0.32;0.30;;;;;;;;;;4966287;28;20090;-79
2023/01/06 11:24:51;;;;;;;0.35;0.35;;;;;;;;;;4929855;28;20077;-78
2023/01/06 11:27:19;;;;;;;0.55;0.55;;;;;;;;;;4942893;28;20063;-78
2023/01/06 11:29:46;;;;;;;1.63;1.17;;;;;;;;;;4929029;28;20046;-79
2023/01/06 11:32:24;;;;;;;3.00;1.20;;;;;;;;;;4932325;28;20050;-78
2023/01/06 11:35:00;;;;;;;0.93;0.70;;;;;;;;;;4975390;28;20065;-78
2023/01/06 11:37:41;;;;;;;0.45;0.40;;;;;;;;;;4939446;28;20079;-78
2023/01/06 11:40:28;;;;;;;0.57;0.35;;;;;;;;;;4964373;28;20090;-77
2023/01/06 11:42:57;;;;;;;0.38;0.30;;;;;;;;;;4924102;28;20466;-78
2023/01/06 11:45:33;;;;;;;0.57;0.40;;;;;;;;;;4917112;28;20055;-76
2023/01/06 11:48:01;;;;;;;0.40;0.40;;;;;;;;;;4930150;28;20403;-78
2023/01/06 11:50:29;;;;;;;1.33;1.05;;;;;;;;;;4938004;28;20054;-85
2023/01/06 11:53:00;;;;;;;1.13;0.90;;;;;;;;;;4939437;28;20082;-77
2023/01/06 11:55:27;;;;;;;0.32;0.30;;;;;;;;;;4929667;28;20050;-77
2023/01/06 11:58:17;;;;;;;1.05;0.70;;;;;;;;;;4937335;28;20058;-78
2023/01/06 12:00:59;;;;;;;1.38;0.73;;;;;;;;;;4918749;28;20143;-77
2023/01/06 12:03:42;;;;;;;1.08;0.70;;;;;;;;;;4945302;28;20138;-78
2023/01/06 12:06:12;;;;;;;0.75;0.75;;;;;;;;;;4965160;28;20503;-79
2023/01/06 12:09:20;;;;;;;1.35;0.60;;;;;;;;;;4955336;28;20125;-79
2023/01/06 12:11:55;;;;;;;0.63;0.50;;;;;;;;;;4958378;28;20498;-80
2023/01/06 12:14:32;;;;;;;1.45;0.98;;;;;;;;;;4923804;28;20130;-80
2023/01/06 12:17:07;;;;;;;1.10;0.93;;;;;;;;;;4969259;28;20050;-80
2023/01/06 12:19:43;;;;;;;1.27;1.17;;;;;;;;;;4944929;28;20046;-80
2023/01/06 12:22:34;;;;;;;0.60;0.50;;;;;;;;;;4955256;28;20059;-79
2023/01/06 12:25:02;;;;;;;1.02;0.50;;;;;;;;;;4951315;28;20047;-79
2023/01/06 12:27:38;;;;;;;0.75;0.55;;;;;;;;;;4929770;28;20046;-78
2023/01/06 12:30:12;;;;;;;0.60;0.60;;;;;;;;;;4965790;28;20058;-79
2023/01/06 12:32:41;;;;;;;1.42;1.00;;;;;;;;;;4947928;28;20114;-79
2023/01/06 12:35:13;;;;;;;0.80;0.80;;;;;;;;;;4926382;28;20518;-79
2023/01/06 12:37:44;;;;;;;1.00;0.88;;;;;;;;;;4933678;28;20047;-79
2023/01/06 12:40:20;;;;;;;2.20;0.93;;;;;;;;;;4941120;28;20094;-80
2023/01/06 12:43:09;;;;;;;1.48;0.85;;;;;;;;;;4960747;28;20587;-80
2023/01/06 12:45:49;;;;;;;1.48;0.98;;;;;;;;;;4969814;28;20066;-79
2023/01/06 12:48:35;;;;;;;0.77;0.68;;;;;;;;;;4946309;28;20051;-79
2023/01/06 12:51:27;;;;;;;1.30;0.93;;;;;;;;;;4943064;28;20042;-79
2023/01/06 12:54:16;;;;;;;0.68;0.60;;;;;;;;;;4963210;28;20062;-78
2023/01/06 12:56:51;;;;;;;1.02;0.70;;;;;;;;;;4928754;28;20137;-78
2023/01/06 12:59:30;;;;;;;2.35;1.10;;;;;;;;;;4966326;28;20050;-80
2023/01/06 13:02:38;;;;;;;1.15;1.05;;;;;;;;;;4960912;28;20595;-80
2023/01/06 13:05:17;;;;;;;1.45;1.10;;;;;;;;;;4970121;28;20480;-79
2023/01/06 13:08:05;;;;;;;1.30;0.77;;;;;;;;;;4939729;28;20052;-79
2023/01/06 13:10:38;;;;;;;1.27;0.82;;;;;;;;;;4956265;28;20058;-80
2023/01/06 13:13:35;;;;;;;0.80;0.80;;;;;;;;;;4961356;28;20059;-79
2023/01/06 13:16:30;;;;;;;1.08;0.68;;;;;;;;;;4937593;28;20135;-78
2023/01/06 13:19:15;;;;;;;0.98;0.70;;;;;;;;;;4947325;28;20054;-79
2023/01/06 13:21:46;;;;;;;0.50;0.50;;;;;;;;;;4960203;28;20519;-79
2023/01/06 13:24:20;;;;;;;0.40;0.30;;;;;;;;;;4942510;28;20061;-79
2023/01/06 13:27:21;;;;;;;0.60;0.30;;;;;;;;;;4953689;28;20050;-79
2023/01/06 13:29:56;;;;;;;0.60;0.40;;;;;;;;;;4957635;28;20551;-79
2023/01/06 13:32:41;;;;;;;1.45;0.70;;;;;;;;;;4952754;28;20068;-79
2023/01/06 13:35:38;;;;;;;0.43;0.40;;;;;;;;;;4919516;28;20058;-79
2023/01/06 13:38:41;;;;;;;1.33;0.57;;;;;;;;;;4934433;28;20126;-79
2023/01/06 13:41:15;;;;;;;0.40;0.38;;;;;;;;;;4924121;29;20069;-79
2023/01/06 13:43:43;;;;;;;1.05;0.57;;;;;;;;;;4931151;28;20073;-80
2023/01/06 13:46:15;;;;;;;2.47;1.23;;;;;;;;;;4939666;28;20072;-79
2023/01/06 13:48:48;;;;;;;0.90;0.57;;;;;;;;;;4943335;28;20073;-80
2023/01/06 13:51:17;;;;;;;2.42;0.68;;;;;;;;;;4945868;28;20554;-78
2023/01/06 13:53:49;;;;;;;0.52;0.52;;;;;;;;;;4947066;28;20510;-78
2023/01/06 13:56:16;;;;;;;0.68;0.50;;;;;;;;;;4946343;28;20046;-80
2023/01/06 13:58:46;;;;;;;0.82;0.45;;;;;;;;;;4958275;28;20085;-78
2023/01/06 14:01:19;;;;;;;0.75;0.45;;;;;;;;;;4940948;28;20058;-78
2023/01/06 14:03:48;;;;;;;1.42;0.90;;;;;;;;;;4952369;28;20054;-78
2023/01/06 14:06:22;;;;;;;1.00;0.80;;;;;;;;;;4932718;28;20054;-78
2023/01/06 14:08:55;;;;;;;1.70;1.10;;;;;;;;;;4954941;28;20113;-78
2023/01/06 14:11:23;;;;;;;2.58;1.17;;;;;;;;;;4955433;28;20054;-78
2023/01/06 14:13:55;;;;;;;2.47;1.20;;;;;;;;;;4957850;28;20212;-78
2023/01/06 14:16:45;;;;;;;0.90;0.70;;;;;;;;;;4943178;28;20058;-78
2023/01/06 14:19:17;;;;;;;1.88;1.10;;;;;;;;;;4949609;28;20127;-78
2023/01/06 14:21:47;;;;;;;1.30;0.93;;;;;;;;;;4950012;28;20129;-78
2023/01/06 14:24:30;;;;;;;1.45;0.95;;;;;;;;;;4946612;28;20313;-78
2023/01/06 14:26:59;;;;;;;;;;;;;;;;;;4964586;28;20458;-78
2023/01/06 14:29:42;;;;;;;2.35;0.98;;;;;;;;;;4956727;28;20004;-78
2023/01/06 14:32:10;;;;;;;1.13;0.93;;;;;;;;;;4962627;28;20054;-78
2023/01/06 14:34:59;;;;;;;1.45;1.10;;;;;;;;;;4994307;28;20050;-79
2023/01/06 14:37:51;;;;;;;1.20;1.08;;;;;;;;;;4962333;28;20093;-82
2023/01/06 14:40:26;;;;;;;2.88;1.65;;;;;;;;;;4990261;28;20054;-78
2023/01/06 14:42:56;;;;;;;1.75;1.20;;;;;;;;;;4925988;28;20498;-77
2023/01/06 14:45:32;;;;;;;3.78;2.10;;;;;;;;;;4920678;28;20063;-78
2023/01/06 14:48:12;;;;;;;2.35;1.00;;;;;;;;;;4978763;28;20082;-78
2023/01/06 14:50:45;;;;;;;1.95;1.10;;;;;;;;;;4952019;28;20065;-78
2023/01/06 14:53:41;;;;;;;2.03;1.15;;;;;;;;;;4932637;28;20419;-79
2023/01/06 14:56:20;;;;;;;1.23;0.90;;;;;;;;;;4968764;28;20109;-80
2023/01/06 14:58:47;;;;;;;1.70;1.05;;;;;;;;;;4919196;28;20119;-79
2023/01/06 15:01:27;;;;;;;1.42;0.95;;;;;;;;;;4963114;28;20072;-79
2023/01/06 15:03:57;;;;;;;1.63;1.23;;;;;;;;;;4923162;28;20398;-80
2023/01/06 15:06:26;;;;;;;2.33;1.17;;;;;;;;;;4943615;28;20051;-77
2023/01/06 15:08:54;;;;;;;1.85;1.30;;;;;;;;;;4923374;28;20053;-77
2023/01/06 15:11:32;;;;;;;2.40;1.30;;;;;;;;;;4940799;28;20146;-77
2023/01/06 15:13:59;;;;;;;2.35;1.35;;;;;;;;;;4930556;28;20584;-77
2023/01/06 15:16:38;;;;;;;1.55;1.33;;;;;;;;;;4962479;28;20092;-78
2023/01/06 15:19:11;;;;;;;2.10;1.70;;;;;;;;;;4959532;28;20097;-78